Terminal Aerodrome Forecast
Issued by NWS

Home | Current Version | Previous Version | Graphics & Text | Print | Product List | Glossary On
Versions: 1 2 3 4 5 6 7 8 9 10 11 12 13 14 15
000
FTUS43 KICT 251920 AAA
TAFRSL
TAF AMD
KRSL 251920Z 2519/2618 34026G38KT P6SM SCT040
     FM252100 34020G27KT P6SM SCT060
     FM260100 VRB06KT P6SM SKC
     FM260600 23006KT P6SM SKC
     FM261200 25010KT P6SM SKC=

USA.gov is the U.S. government's official web portal to all federal, state and local government web resources and services.